Latest Coastal Weather Observations for Coolangatta

IDQ60701

Issued at 7:52 pm EST Saturday 13 August 2022 (issued every 10 minutes, with the page automatically refreshed every 10 minutes)

About coastal observations | Map of coastal stations | Coastal observations for QLD | Marine services | Other Formats
Station Details ID: 040717 Name: COOLANGATTA Lat: -28.17 Lon: 153.51 Height: 4.0 m
Data from the previous 72 hours. | See also: Recent months at Coolangatta

Observations at Coolangatta are collected in the Queensland time zone, which does not include daylight savings during the summer period. Therefore 'Rain since 9am' totals and other values are based on the Queensland time zone.

Date/Time
EST
Wind Sea
Height
m
Swell Vis
km
Cloud Weather Temp
°C
Press
MSL
hPa
Rain since
9am
mm
Dir  Spd
kts
Gust
kts
Height
m
Period
s
Dir
13/07:30pm WNW 4 6 - - - - 10 Partly cloudy - 13.2 1015.4 3.4
13/07:00pm NW 6 7 - - - - 10 - - 13.2 1015.3 3.4
13/06:30pm NW 5 5 - - - - 10 - - 13.6 1015.1 3.4
13/06:00pm NNW 6 7 - - - - 10 - - 14.7 1014.7 3.4
13/05:30pm NW 7 10 - - - - 10 - - 15.1 1014.2 3.4
13/05:00pm NNW 7 11 - - - - 10 - - 15.8 1014.1 3.4
13/04:30pm NNW 8 12 - - - - 10 Partly cloudy - 16.1 1014.0 3.4
13/04:00pm NNW 9 12 - - - - 10 Partly cloudy - 15.9 1013.9 3.4
13/03:30pm NNW 9 13 - - - - 10 Partly cloudy - 16.1 1013.8 3.4
13/03:00pm NNW 8 11 - - - - 10 Cloudy Rain 16.0 1014.0 3.2
13/02:30pm NNW 7 9 - - - - 10 Partly cloudy - 15.9 1014.1 2.2
13/02:00pm NNW 6 9 - - - - 10 Cloudy - 16.5 1014.5 2.0
13/01:30pm NW 6 7 - - - - 10 Cloudy - 16.4 1014.7 1.8
13/01:00pm W 5 7 - - - - 10 Partly cloudy - 17.1 1015.3 1.0
13/12:30pm CALM 0 4 - - - - 10 Cloudy - 17.4 1015.5 0.0
13/12:00pm SW 2 4 - - - - 10 Mostly cloudy - 17.3 1015.7 0.0
13/11:30am SW 3 4 - - - - 10 Cloudy - 17.1 1016.3 0.0
13/11:00am SW 4 6 - - - - 10 Partly cloudy - 17.1 1016.6 0.0
13/10:30am SSW 7 9 - - - - 10 Partly cloudy - 16.7 1016.9 0.0
13/10:00am WNW 3 5 - - - - 10 Partly cloudy - 17.6 1016.9 0.0
13/09:30am WNW 5 8 - - - - 10 Partly cloudy - 17.3 1017.0 0.0
13/09:00am NW 7 10 - - - - 10 Cloudy Showers 17.0 1016.8 3.4
13/08:30am WNW 6 9 - - - - 10 Partly cloudy - 16.8 1016.7 3.4
13/08:00am NW 9 12 - - - - 10 Partly cloudy - 17.0 1016.4 3.0
13/07:30am NW 10 14 - - - - 10 Partly cloudy - 16.6 1016.0 3.0
13/07:00am NW 10 14 - - - - 10 Partly cloudy - 16.7 1015.5 3.0
13/06:30am NW 10 13 - - - - 10 Partly cloudy - 16.5 1015.9 3.0
13/06:00am NW 8 11 - - - - 10 Cloudy - 16.5 1015.9 3.0
13/05:30am NNW 7 11 - - - - 10 - - 16.3 1015.8 3.0
13/05:00am NW 4 6 - - - - 10 - - 15.8 1015.6 3.0
13/04:30am NW 4 5 - - - - 10 Partly cloudy - 15.5 1015.9 3.0
13/04:00am NNW 6 8 - - - - 10 Partly cloudy - 15.9 1016.0 3.0
13/03:30am NNW 5 6 - - - - 10 Partly cloudy - 15.4 1016.2 3.0
13/03:00am WNW 4 5 - - - - 10 Cloudy - 15.2 1016.9 3.0
13/02:30am WNW 1 3 - - - - 10 Partly cloudy - 15.3 1016.6 3.0
13/02:00am WNW 3 4 - - - - 10 Cloudy - 15.6 1017.5 3.0
13/01:30am WNW 4 6 - - - - 10 Cloudy - 15.5 1018.0 3.0
13/01:00am NW 2 5 - - - - 10 Partly cloudy - 15.7 1017.7 3.0
13/12:30am NW 4 6 - - - - 10 Partly cloudy - 15.7 1018.3 3.0
13/12:22am NW 5 7 - - - - 10 Partly cloudy - 15.8 1018.5 3.0
13/12:00am WNW 4 6 - - - - 5 Cloudy Showers 15.8 1019.0 2.8
 
Date/Time
EST
Wind Sea
Height
m
Swell Vis
km
Cloud Weather Temp
°C
Press
MSL
hPa
Rain since
9am
mm
Dir  Spd
kts
Gust
kts
Height
m
Period
s
Dir
12/11:59pm WNW 5 6 - - - - 5 Partly cloudy - 15.8 1019.0 2.8
12/11:30pm WNW 2 4 - - - - 10 Partly cloudy - 15.7 1019.0 2.6
12/11:00pm WNW 4 6 - - - - 10 Partly cloudy - 15.7 1019.0 2.6
12/10:50pm WNW 4 5 - - - - 10 Partly cloudy - 15.7 1019.0 2.6
12/10:30pm WNW 5 6 - - - - 10 Partly cloudy - 15.9 1019.5 2.6
12/10:22pm NW 5 7 - - - - 10 Partly cloudy - 16.0 1019.6 2.6
12/10:01pm NW 6 8 - - - - 10 Partly cloudy - 15.9 1019.8 2.6
12/10:00pm NW 6 8 - - - - 10 Partly cloudy - 15.9 1019.8 2.6
12/09:54pm NW 6 9 - - - - 7 Partly cloudy - 16.0 1019.7 2.6
12/09:36pm NW 6 8 - - - - 6 Cloudy - 16.0 1019.6 2.6
12/09:30pm NW 5 8 - - - - 10 Partly cloudy - 15.7 1019.5 2.4
12/09:22pm NW 5 8 - - - - 10 Partly cloudy - 15.8 1019.6 2.4
12/09:00pm NNW 8 11 - - - - 10 Cloudy - 15.7 1019.8 2.4
12/08:30pm WNW 4 5 - - - - 10 Cloudy - 15.5 1019.9 2.4
12/08:00pm WNW 5 6 - - - - 10 Cloudy - 15.5 1020.2 2.4
12/07:30pm WNW 5 6 - - - - 10 Cloudy - 15.6 1020.0 2.4
12/07:00pm NW 5 7 - - - - 10 Partly cloudy - 15.7 1020.1 2.4
12/06:54pm NW 6 10 - - - - 8 Partly cloudy - 15.7 1020.1 2.4
12/06:30pm NW 8 12 - - - - 5 Partly cloudy - 15.9 1020.3 2.2
12/06:28pm NW 8 12 - - - - 6 Partly cloudy - 16.0 1020.3 2.2
12/06:00pm NW 4 6 - - - - 10 Cloudy Rain 16.0 1019.6 2.2
12/05:33pm NNW 6 9 - - - - 10 Partly cloudy - 15.8 1019.0 2.2
12/05:30pm NNW 7 11 - - - - 10 Partly cloudy - 15.8 1019.0 2.2
12/05:27pm NNW 7 11 - - - - 10 Partly cloudy - 15.8 1019.0 2.2
12/05:01pm N 10 13 - - - - 6 Partly cloudy - 16.4 1019.4 1.6
12/05:00pm N 10 13 - - - - 7 Partly cloudy - 16.4 1019.4 1.4
12/04:30pm N 14 18 - - - - 6 Partly cloudy - 16.3 1019.2 1.0
12/04:07pm N 12 17 - - - - 10 Partly cloudy - 16.4 1019.2 1.0
12/04:00pm N 15 19 - - - - 9 Partly cloudy - 16.3 1019.1 1.0
12/03:40pm N 16 22 - - - - 5 Partly cloudy - 16.7 1018.8 0.6
12/03:30pm N 10 15 - - - - 10 Partly cloudy - 18.4 1018.8 0.0
12/03:00pm N 11 14 - - - - 10 Cloudy - 18.8 1019.0 0.0
12/02:30pm N 12 15 - - - - 10 Partly cloudy - 19.2 1018.8 0.0
12/02:00pm N 10 12 - - - - 10 Partly cloudy - 19.7 1018.7 0.0
12/01:30pm N 10 13 - - - - 10 Partly cloudy - 19.6 1019.0 0.0
12/01:00pm N 10 12 - - - - 10 Cloudy - 19.3 1019.5 0.0
12/12:30pm N 9 11 - - - - 10 Partly cloudy - 19.6 1020.3 0.0
12/12:00pm N 9 12 - - - - 10 Cloudy - 19.6 1020.7 0.0
12/11:30am N 9 12 - - - - 10 Partly cloudy - 19.7 1021.4 0.0
12/11:00am N 8 11 - - - - 10 - - 19.4 1021.8 0.0
12/10:30am NNW 7 10 - - - - 10 - - 19.1 1022.2 0.0
12/10:00am NW 5 7 - - - - 10 - - 19.1 1022.5 0.0
12/09:30am WSW 3 5 - - - - 10 - - 17.5 1022.7 0.0
12/09:00am WSW 2 4 - - - - 10 Mostly cloudy - 16.8 1022.8 0.4
12/08:30am WSW 6 7 - - - - 10 Partly cloudy - 16.0 1023.0 0.4
12/08:00am WSW 7 10 - - - - 10 Partly cloudy - 15.4 1022.9 0.4
12/07:30am WNW 7 11 - - - - 10 Partly cloudy - 14.7 1022.6 0.4
12/07:00am W 7 10 - - - - 10 Partly cloudy - 14.6 1022.0 0.4
12/06:30am WSW 4 6 - - - - 10 Partly cloudy - 14.1 1022.2 0.4
12/06:00am WSW 1 4 - - - - 10 Cloudy - 13.9 1021.9 0.4
12/05:30am WSW 5 5 - - - - 10 Partly cloudy - 13.7 1021.7 0.4
12/05:00am WSW 3 4 - - - - 10 Partly cloudy - 14.0 1021.6 0.4
12/04:30am WSW 4 6 - - - - 10 Partly cloudy - 13.9 1022.0 0.4
12/04:00am WSW 5 6 - - - - 10 Partly cloudy - 14.0 1022.0 0.4
12/03:30am WSW 3 4 - - - - 10 Partly cloudy - 14.0 1022.0 0.4
12/03:00am WSW 4 4 - - - - 10 Cloudy - 13.8 1022.4 0.4
12/02:30am WSW 3 4 - - - - 10 Cloudy - 14.2 1022.7 0.4
12/02:00am WSW 5 7 - - - - 10 Partly cloudy - 14.4 1022.9 0.4
12/01:30am SW 6 7 - - - - 10 Partly cloudy - 14.5 1023.5 0.4
12/01:13am SW 7 9 - - - - 10 Partly cloudy - 14.5 1023.6 0.4
12/01:00am WSW 7 9 - - - - 4 Partly cloudy - 14.4 1023.8 0.4
12/12:49am WSW 5 8 - - - - 6 Partly cloudy - 14.4 1023.9 0.2
12/12:30am WSW 6 7 - - - - 10 Partly cloudy - 14.5 1023.7 0.2
12/12:00am WSW 6 8 - - - - 10 Cloudy - 14.3 1023.3 0.2
 
Date/Time
EST
Wind Sea
Height
m
Swell Vis
km
Cloud Weather Temp
°C
Press
MSL
hPa
Rain since
9am
mm
Dir  Spd
kts
Gust
kts
Height
m
Period
s
Dir
11/11:30pm WSW 5 6 - - - - 10 Partly cloudy - 14.2 1023.4 0.2
11/11:00pm SW 4 6 - - - - 10 Partly cloudy - 14.3 1023.4 0.2
11/10:30pm SW 6 7 - - - - 10 Partly cloudy - 14.3 1023.8 0.2
11/10:00pm SW 6 8 - - - - 10 Partly cloudy - 14.4 1023.9 0.2
11/09:44pm SW 5 7 - - - - 10 Partly cloudy - 14.4 1024.2 0.2
11/09:30pm SW 2 4 - - - - 5 Partly cloudy - 14.7 1024.4 0.2
11/09:27pm SW 1 4 - - - - 6 Partly cloudy - 14.7 1024.4 0.2
11/09:00pm SW 4 5 - - - - 10 Cloudy - 14.5 1024.4 0.0
11/08:30pm SW 2 4 - - - - 10 Partly cloudy - 14.7 1024.2 0.0
11/08:00pm SW 7 8 - - - - 10 Cloudy - 15.0 1024.2 0.0
11/07:30pm SE 5 6 - - - - 10 Cloudy - 15.4 1023.9 0.0
11/07:00pm ENE 4 5 - - - - 10 Cloudy - 15.8 1023.5 0.0
11/06:30pm ENE 2 4 - - - - 10 Cloudy - 16.6 1023.4 0.0
11/06:00pm ENE 6 8 - - - - 10 Cloudy - 16.9 1023.2 0.0
11/05:30pm E 5 6 - - - - 10 Partly cloudy - 16.7 1022.8 0.0
11/05:00pm E 6 7 - - - - 10 Partly cloudy - 17.0 1022.8 0.0
11/04:30pm SE 5 8 - - - - 10 Partly cloudy - 17.5 1023.0 0.0
11/04:00pm SE 9 12 - - - - 10 Partly cloudy - 18.0 1022.6 0.0
11/03:30pm SE 12 16 - - - - 10 - - 17.4 1022.0 0.0
11/03:00pm SE 13 16 - - - - 10 Cloudy - 17.9 1021.9 0.0
11/02:30pm SE 11 14 - - - - 10 Partly cloudy - 18.4 1022.8 0.0
11/02:00pm SSE 10 13 - - - - 10 Partly cloudy - 18.6 1023.2 0.0
11/01:30pm SE 10 14 - - - - 10 Partly cloudy - 18.5 1023.6 0.0
11/01:00pm SE 12 16 - - - - 10 Partly cloudy - 18.4 1023.8 0.0
11/12:30pm SE 12 17 - - - - 10 Cloudy - 18.5 1024.3 0.0
11/12:00pm SSW 9 13 - - - - 10 Cloudy - 19.0 1024.8 0.0
11/11:30am SSE 10 13 - - - - 10 Cloudy - 18.6 1025.0 0.0
11/11:00am SSW 9 13 - - - - 10 Partly cloudy - 18.5 1025.2 0.0
11/10:30am S 9 13 - - - - 10 Partly cloudy - 18.9 1025.2 0.0
11/10:00am S 10 16 - - - - 10 Partly cloudy - 17.6 1026.1 0.0
11/09:30am S 9 13 - - - - 10 - - 18.3 1025.7 0.0
11/09:00am S 7 10 - - - - 10 Cloudy - 17.1 1025.9 0.0
11/08:30am SSW 8 11 - - - - 10 Partly cloudy - 15.9 1025.7 0.0
11/08:00am SSW 8 11 - - - - 10 Partly cloudy - 16.2 1025.6 0.0
11/07:30am SW 9 14 - - - - 10 - - 15.1 1025.5 0.0
11/07:00am SSW 8 11 - - - - 10 - - 14.3 1025.4 0.0
11/06:30am SSW 8 13 - - - - 10 - - 13.6 1025.0 0.0
11/06:00am SSW 8 12 - - - - 10 - - 13.6 1024.8 0.0
11/05:30am SSW 9 12 - - - - 10 - - 13.6 1024.3 0.0
11/05:00am SSW 9 13 - - - - 10 - - 13.5 1024.0 0.0
11/04:30am S 8 13 - - - - 10 - - 13.7 1023.8 0.0
11/04:00am SSW 6 10 - - - - 10 - - 13.6 1024.0 0.0
11/03:30am SW 9 12 - - - - 10 - - 13.9 1024.0 0.0
11/03:00am SSW 8 11 - - - - 10 - - 13.8 1023.7 0.0
11/02:30am SSW 8 11 - - - - 10 Partly cloudy - 14.0 1023.8 0.0
11/02:00am SSW 8 11 - - - - 10 Partly cloudy - 14.0 1024.1 0.0
11/01:30am SSW 8 11 - - - - 10 - - 14.0 1024.3 0.0
11/01:00am SSW 8 11 - - - - 10 - - 14.1 1024.6 0.0
11/12:30am SW 8 11 - - - - 10 - - 14.2 1024.9 0.0
11/12:00am SW 9 11 - - - - 10 - - 14.2 1025.0 0.0
 
Date/Time
EST
Wind Sea
Height
m
Swell Vis
km
Cloud Weather Temp
°C
Press
MSL
hPa
Rain since
9am
mm
Dir  Spd
kts
Gust
kts
Height
m
Period
s
Dir
10/11:30pm SW 8 12 - - - - 10 - - 14.2 1025.0 0.0
10/11:00pm SW 8 12 - - - - 10 - - 14.3 1025.0 0.0
10/10:30pm SW 8 11 - - - - 10 - - 14.0 1025.5 0.0
10/10:00pm SW 8 11 - - - - 10 - - 14.3 1025.5 0.0
10/09:30pm SW 8 10 - - - - 10 - - 13.8 1025.6 0.0
10/09:00pm SSW 6 8 - - - - 10 - - 13.5 1025.5 0.0
10/08:30pm SSW 6 8 - - - - 10 - - 13.9 1025.4 0.0
10/08:00pm SSW 7 10 - - - - 10 - - 14.1 1025.3 0.0

Other formats

Comma delimited format used in spreadsheet applications
http://www.bom.gov.au/fwo/IDQ60701/IDQ60701.94592.axf

JavaScript Object Notation format (JSON) in row-major order
http://www.bom.gov.au/fwo/IDQ60701/IDQ60701.94592.json

Data quality

Most of these data are generated automatically and are frequently updated. Quality checks on data are not normally performed. It is possible for incorrect values to appear. Refer to information at About Latest Weather Observations and please check the disclaimer before using these data.